Time;durP1;ratioP1;P1;durP2;ratioP2;P2;SDS_P1;SDS_P2;PMS_P1;PMS_P2;Temp;Humidity;BMP_temperature;BMP_pressure;BME280_temperature;BME280_humidity;BME280_pressure;Samples;Min_cycle;Max_cycle;Signal;HPM_P1;HPM_P2
2021/04/26 00:00:29;;;;;;;7.10;3.20;;;3.90;80.00;;;;;;5112465;28;20124;-73
2021/04/26 00:02:57;;;;;;;6.20;2.53;;;3.90;80.10;;;;;;5111536;28;20484;-73
2021/04/26 00:05:23;;;;;;;8.33;2.60;;;3.90;80.20;;;;;;5111438;28;20313;-73
2021/04/26 00:07:49;;;;;;;7.70;2.70;;;3.80;80.10;;;;;;5111929;28;20380;-73
2021/04/26 00:10:15;;;;;;;7.20;2.83;;;3.80;80.10;;;;;;5111540;28;20407;-73
2021/04/26 00:12:42;;;;;;;7.77;2.40;;;3.80;80.20;;;;;;5111135;28;20047;-73
2021/04/26 00:15:12;;;;;;;5.60;2.63;;;3.80;80.20;;;;;;5111799;28;20372;-73
2021/04/26 00:17:38;;;;;;;9.63;2.60;;;3.80;80.10;;;;;;5112368;28;20655;-73
2021/04/26 00:20:09;;;;;;;6.03;2.57;;;3.80;80.20;;;;;;5110618;28;20301;-72
2021/04/26 00:22:34;;;;;;;8.13;2.73;;;3.80;80.30;;;;;;5111961;28;20044;-72
2021/04/26 00:25:01;;;;;;;5.37;2.60;;;3.70;80.30;;;;;;5111026;28;20393;-72
2021/04/26 00:27:26;;;;;;;5.57;2.27;;;3.70;80.30;;;;;;5111104;28;20854;-72
2021/04/26 00:29:52;;;;;;;13.60;2.53;;;3.70;80.40;;;;;;5111781;28;20104;-73
2021/04/26 00:32:18;;;;;;;6.83;2.03;;;3.60;80.50;;;;;;5111430;28;20133;-72
2021/04/26 00:34:44;;;;;;;6.30;2.30;;;3.60;80.80;;;;;;5110524;28;20445;-72
2021/04/26 00:37:10;;;;;;;10.60;2.67;;;3.60;80.80;;;;;;5111666;28;20340;-72
2021/04/26 00:39:35;;;;;;;4.30;2.07;;;3.60;80.80;;;;;;5111608;28;20067;-72
2021/04/26 00:42:01;;;;;;;9.50;2.10;;;3.60;80.80;;;;;;5110578;28;20052;-73
2021/04/26 00:44:30;;;;;;;6.40;2.10;;;3.60;80.80;;;;;;5112695;28;20438;-72
2021/04/26 00:46:55;;;;;;;7.50;2.20;;;3.50;80.90;;;;;;5114552;28;20309;-72
2021/04/26 00:49:21;;;;;;;9.57;2.77;;;3.50;80.90;;;;;;5116094;28;20043;-73
2021/04/26 00:51:47;;;;;;;5.43;1.60;;;3.50;81.10;;;;;;5115540;28;20052;-72
2021/04/26 00:54:13;;;;;;;7.17;1.70;;;3.50;81.10;;;;;;5114749;28;20051;-73
2021/04/26 00:56:38;;;;;;;7.40;2.73;;;3.50;81.20;;;;;;5115643;28;20523;-72
2021/04/26 00:59:05;;;;;;;7.07;2.57;;;3.50;81.10;;;;;;5115312;28;20294;-72
2021/04/26 01:01:30;;;;;;;4.53;2.28;;;3.50;81.30;;;;;;5115295;28;20055;-72
2021/04/26 01:03:56;;;;;;;4.33;2.20;;;3.50;81.20;;;;;;5115284;28;20404;-73
2021/04/26 01:06:22;;;;;;;5.57;2.20;;;3.50;81.20;;;;;;5115697;28;20492;-73
2021/04/26 01:08:47;;;;;;;9.33;2.70;;;3.40;81.20;;;;;;5114709;28;20044;-72
2021/04/26 01:11:13;;;;;;;5.20;2.10;;;3.40;81.30;;;;;;5115342;28;20568;-73
2021/04/26 01:13:45;;;;;;;7.30;2.47;;;3.40;82.20;;;;;;5115657;28;20142;-72
2021/04/26 01:16:45;;;;;;;6.43;2.30;;;3.40;81.30;;;;;;5114348;28;20309;-72
2021/04/26 01:19:44;;;;;;;6.73;2.70;;;3.30;81.40;;;;;;5081585;28;20342;-72
2021/04/26 01:22:46;;;;;;;4.73;2.20;;;3.30;81.40;;;;;;5114334;28;20305;-72
2021/04/26 01:25:16;;;;;;;4.85;2.53;;;3.30;81.50;;;;;;5114791;28;20321;-72
2021/04/26 01:27:41;;;;;;;6.33;2.73;;;3.20;81.30;;;;;;5115013;28;20040;-72
2021/04/26 01:30:16;;;;;;;4.07;2.83;;;3.20;81.30;;;;;;5114125;28;20304;-73
2021/04/26 01:32:46;;;;;;;6.77;2.67;;;3.20;81.30;;;;;;5114992;28;20071;-73
2021/04/26 01:35:15;;;;;;;7.70;2.40;;;3.20;81.50;;;;;;5114569;28;20340;-73
2021/04/26 01:37:42;;;;;;;7.93;3.23;;;3.20;81.40;;;;;;5113997;28;20293;-73
2021/04/26 01:40:12;;;;;;;5.40;2.00;;;3.20;81.50;;;;;;5114418;28;20436;-72
2021/04/26 01:42:39;;;;;;;6.70;2.17;;;3.10;81.60;;;;;;5115112;28;20384;-73
2021/04/26 01:45:07;;;;;;;4.00;2.00;;;3.10;81.60;;;;;;5113605;28;20305;-73
2021/04/26 01:47:35;;;;;;;6.67;1.97;;;3.10;81.70;;;;;;5114802;28;20350;-73
2021/04/26 01:50:03;;;;;;;5.00;2.40;;;3.10;81.70;;;;;;5114349;28;20312;-73
2021/04/26 01:52:29;;;;;;;4.27;1.97;;;3.10;81.70;;;;;;5114204;28;20687;-73
2021/04/26 01:54:55;;;;;;;5.77;2.00;;;3.10;81.70;;;;;;5114250;28;20380;-74
2021/04/26 01:57:27;;;;;;;6.17;2.37;;;3.10;81.70;;;;;;5112345;28;20306;-73
2021/04/26 01:59:54;;;;;;;6.03;2.70;;;3.00;81.60;;;;;;5114139;28;20658;-73
2021/04/26 02:02:20;;;;;;;10.83;3.70;;;3.00;81.70;;;;;;5114373;28;20751;-73
2021/04/26 02:04:47;;;;;;;8.03;3.00;;;3.00;81.90;;;;;;5113248;28;20289;-74
2021/04/26 02:07:14;;;;;;;6.67;3.30;;;3.00;81.90;;;;;;5114250;28;20132;-74
2021/04/26 02:09:41;;;;;;;4.53;2.97;;;3.00;81.70;;;;;;5114476;28;20691;-74
2021/04/26 02:12:12;;;;;;;8.90;3.47;;;3.00;81.80;;;;;;5113334;28;20304;-74
2021/04/26 02:14:40;;;;;;;5.57;2.25;;;3.10;81.60;;;;;;5114260;28;20309;-74
2021/04/26 02:17:06;;;;;;;5.73;2.40;;;3.10;81.60;;;;;;5113872;28;20043;-73
2021/04/26 02:19:33;;;;;;;3.63;1.55;;;3.10;81.50;;;;;;5113290;28;20381;-73
2021/04/26 02:21:59;;;;;;;14.63;2.73;;;3.10;81.50;;;;;;5113723;28;20044;-74
2021/04/26 02:24:24;;;;;;;7.60;2.07;;;3.10;82.40;;;;;;5114158;28;20301;-74
2021/04/26 02:26:51;;;;;;;7.00;2.40;;;3.10;81.70;;;;;;5112965;28;20320;-74
2021/04/26 02:29:16;;;;;;;6.17;2.33;;;3.10;81.70;;;;;;5113409;28;20301;-74
2021/04/26 02:31:49;;;;;;;7.27;2.23;;;3.10;81.60;;;;;;5113511;28;20052;-74
2021/04/26 02:34:38;;;;;;;4.90;2.43;;;3.00;81.70;;;;;;5112817;28;20095;-73
2021/04/26 02:37:31;;;;;;;3.43;2.00;;;3.10;81.80;;;;;;5113275;28;20323;-73
2021/04/26 02:40:06;;;;;;;6.00;2.43;;;3.10;82.10;;;;;;5112483;28;20315;-74
2021/04/26 02:42:35;;;;;;;4.87;2.67;;;3.10;82.00;;;;;;5113710;28;20289;-73
2021/04/26 02:45:01;;;;;;;3.77;2.30;;;3.10;81.90;;;;;;5113172;28;20765;-73
2021/04/26 02:47:28;;;;;;;6.93;2.43;;;3.10;81.90;;;;;;5113017;28;20335;-73
2021/04/26 02:49:54;;;;;;;7.45;2.42;;;3.00;81.70;;;;;;5113150;28;20722;-72
2021/04/26 02:52:21;;;;;;;4.67;2.50;;;3.00;81.80;;;;;;5113710;28;20100;-72
2021/04/26 02:54:48;;;;;;;7.60;2.43;;;3.00;82.20;;;;;;5112339;28;20301;-73
2021/04/26 02:57:14;;;;;;;6.00;2.30;;;3.00;82.10;;;;;;5113257;28;20325;-72
2021/04/26 02:59:42;;;;;;;6.73;3.37;;;3.00;82.10;;;;;;5113572;28;20372;-73
2021/04/26 03:02:08;;;;;;;8.20;2.30;;;2.90;82.10;;;;;;5112437;28;20327;-73
2021/04/26 03:04:34;;;;;;;5.50;2.53;;;2.90;82.10;;;;;;5113461;28;20112;-72
2021/04/26 03:07:02;;;;;;;6.27;2.20;;;2.90;82.30;;;;;;5112074;28;20313;-72
2021/04/26 03:09:29;;;;;;;6.27;2.63;;;2.90;82.30;;;;;;5112464;28;20043;-72
2021/04/26 03:11:56;;;;;;;6.67;2.60;;;2.90;82.40;;;;;;5112297;28;20774;-72
2021/04/26 03:14:24;;;;;;;3.97;2.20;;;2.90;82.60;;;;;;5113036;28;20300;-72
2021/04/26 03:16:51;;;;;;;6.57;2.77;;;2.90;82.50;;;;;;5112064;28;20308;-73
2021/04/26 03:19:18;;;;;;;6.27;2.50;;;2.90;82.40;;;;;;5112503;28;20911;-73
2021/04/26 03:21:46;;;;;;;9.07;2.77;;;2.80;82.40;;;;;;5111687;28;20309;-73
2021/04/26 03:24:14;;;;;;;9.17;2.40;;;2.80;82.40;;;;;;5112686;28;20328;-72
2021/04/26 03:26:43;;;;;;;6.40;2.47;;;2.80;82.50;;;;;;5112828;28;20390;-73
2021/04/26 03:29:13;;;;;;;5.30;2.30;;;2.80;82.60;;;;;;5112006;28;20311;-73
2021/04/26 03:31:49;;;;;;;6.53;2.77;;;2.80;82.70;;;;;;5112858;28;20067;-73
2021/04/26 03:34:15;;;;;;;6.32;2.40;;;2.80;82.70;;;;;;5112240;28;20309;-73
2021/04/26 03:36:42;;;;;;;3.63;2.23;;;2.70;82.70;;;;;;5111585;28;20126;-73
2021/04/26 03:39:14;;;;;;;6.93;2.47;;;2.70;82.60;;;;;;5112267;28;20305;-73
2021/04/26 03:41:41;;;;;;;4.40;2.70;;;2.80;82.80;;;;;;5112632;28;20692;-73
2021/04/26 03:44:17;;;;;;;5.20;2.27;;;2.80;82.90;;;;;;5111596;28;20301;-73
2021/04/26 03:47:09;;;;;;;4.10;2.78;;;2.70;82.90;;;;;;5111991;28;20769;-73
2021/04/26 03:49:34;;;;;;;4.72;3.00;;;2.70;82.80;;;;;;5109444;28;20047;-73
2021/04/26 03:52:00;;;;;;;6.40;3.33;;;2.70;82.90;;;;;;5111282;28;20795;-73
2021/04/26 03:54:26;;;;;;;9.33;2.93;;;2.70;82.80;;;;;;5112247;28;20043;-73
2021/04/26 03:56:51;;;;;;;7.63;3.20;;;2.70;82.80;;;;;;5111291;28;20047;-73
2021/04/26 03:59:17;;;;;;;7.47;2.43;;;2.70;83.00;;;;;;5111774;28;20040;-73
2021/04/26 04:01:44;;;;;;;6.97;2.70;;;2.70;83.10;;;;;;5111973;28;20054;-73
2021/04/26 04:04:10;;;;;;;6.23;2.77;;;2.70;83.70;;;;;;5111380;28;20052;-73
2021/04/26 04:06:36;;;;;;;7.50;3.57;;;2.70;83.80;;;;;;5112083;28;20369;-73
2021/04/26 04:09:04;;;;;;;6.23;2.93;;;2.70;83.80;;;;;;5111650;28;20127;-73
2021/04/26 04:11:29;;;;;;;5.63;2.70;;;2.80;83.90;;;;;;5111358;28;20100;-73
2021/04/26 04:13:55;;;;;;;9.43;3.83;;;2.80;83.70;;;;;;5111259;28;20388;-73
2021/04/26 04:16:21;;;;;;;8.70;3.10;;;2.80;83.50;;;;;;5112116;28;20051;-73
2021/04/26 04:18:47;;;;;;;6.80;3.07;;;2.80;83.40;;;;;;5110185;28;20067;-73
2021/04/26 04:21:13;;;;;;;7.57;4.27;;;2.80;83.30;;;;;;5111577;28;20305;-74
2021/04/26 04:23:39;;;;;;;4.47;3.00;;;2.70;83.30;;;;;;5112174;28;20631;-73
2021/04/26 04:26:05;;;;;;;4.53;2.70;;;2.80;83.30;;;;;;5110321;28;20437;-73
2021/04/26 04:28:31;;;;;;;6.90;3.20;;;2.70;83.30;;;;;;5111824;28;20048;-73
2021/04/26 04:30:59;;;;;;;6.73;3.10;;;2.70;83.40;;;;;;5111403;28;20451;-73
2021/04/26 04:33:25;;;;;;;9.77;4.23;;;2.70;83.40;;;;;;5111027;28;20338;-73
2021/04/26 04:35:51;;;;;;;7.23;3.60;;;2.70;83.30;;;;;;5111191;28;20697;-73
2021/04/26 04:38:16;;;;;;;7.63;3.27;;;2.70;83.30;;;;;;5111186;28;20048;-73
2021/04/26 04:40:44;;;;;;;8.73;3.80;;;2.70;83.50;;;;;;5110442;28;20047;-73
2021/04/26 04:43:11;;;;;;;6.87;3.17;;;2.60;83.60;;;;;;5111458;28;20293;-73
2021/04/26 04:45:36;;;;;;;4.90;3.00;;;2.70;83.90;;;;;;5111659;28;20071;-72
2021/04/26 04:48:03;;;;;;;10.80;3.70;;;2.70;83.80;;;;;;5110041;28;20729;-73
2021/04/26 04:50:29;;;;;;;8.27;3.50;;;2.70;84.00;;;;;;5111842;28;20104;-73
2021/04/26 04:52:55;;;;;;;8.97;3.27;;;2.70;84.20;;;;;;5110853;28;20683;-73
2021/04/26 04:55:20;;;;;;;8.20;2.90;;;2.70;84.40;;;;;;5110882;28;20044;-72
2021/04/26 04:57:46;;;;;;;6.87;3.27;;;2.70;84.40;;;;;;5110898;28;20496;-72
2021/04/26 05:00:12;;;;;;;6.23;3.10;;;2.70;84.50;;;;;;5110541;28;20051;-72
2021/04/26 05:02:38;;;;;;;5.30;2.90;;;2.80;84.60;;;;;;5111866;28;20124;-72
2021/04/26 05:05:04;;;;;;;5.27;2.70;;;2.80;84.50;;;;;;5110669;28;20093;-72
2021/04/26 05:07:30;;;;;;;7.27;2.60;;;2.90;84.40;;;;;;5110727;28;20059;-72
2021/04/26 05:09:56;;;;;;;6.70;2.77;;;2.90;84.40;;;;;;5110681;28;20638;-73
2021/04/26 05:12:21;;;;;;;6.83;2.90;;;2.90;84.80;;;;;;5111354;28;20051;-73
2021/04/26 05:14:48;;;;;;;9.03;3.70;;;2.90;84.90;;;;;;5110419;28;20051;-73
2021/04/26 05:17:14;;;;;;;6.33;3.10;;;3.00;85.10;;;;;;5111179;28;20043;-73
2021/04/26 05:19:40;;;;;;;8.00;2.70;;;3.10;85.20;;;;;;5111164;28;20386;-73
2021/04/26 05:22:06;;;;;;;9.33;3.47;;;3.30;85.40;;;;;;5110291;28;20297;-74
2021/04/26 05:24:32;;;;;;;5.73;2.83;;;3.40;85.00;;;;;;5111501;28;20043;-74
2021/04/26 05:26:58;;;;;;;5.23;2.80;;;3.60;85.00;;;;;;5110218;28;20721;-75
2021/04/26 05:29:24;;;;;;;7.87;2.40;;;3.90;85.50;;;;;;5110885;28;20289;-74
2021/04/26 05:31:50;;;;;;;4.73;2.40;;;4.40;85.50;;;;;;5113835;28;20505;-74
2021/04/26 05:34:15;;;;;;;6.13;2.83;;;4.90;84.00;;;;;;5114454;28;20300;-72
2021/04/26 05:36:42;;;;;;;6.43;3.10;;;5.40;83.30;;;;;;5113852;28;20524;-74
2021/04/26 05:39:07;;;;;;;6.57;2.47;;;6.00;82.30;;;;;;5114851;28;20290;-73
2021/04/26 05:41:33;;;;;;;10.83;2.47;;;6.50;81.10;;;;;;5114315;28;20553;-74
2021/04/26 05:43:58;;;;;;;7.60;2.80;;;7.00;80.20;;;;;;5113673;28;20081;-74
2021/04/26 05:46:24;;;;;;;5.70;2.43;;;7.60;78.70;;;;;;5114621;28;20094;-75
2021/04/26 05:48:50;;;;;;;4.87;2.70;;;8.20;76.80;;;;;;5114459;28;20044;-75
2021/04/26 05:51:16;;;;;;;5.63;2.50;;;8.60;75.40;;;;;;5113695;28;20063;-75
2021/04/26 05:53:42;;;;;;;7.20;2.20;;;8.90;74.10;;;;;;5114145;28;20039;-74
2021/04/26 05:56:08;;;;;;;5.07;1.83;;;9.10;73.60;;;;;;5114190;28;20300;-74
2021/04/26 05:58:34;;;;;;;7.50;2.67;;;9.30;72.60;;;;;;5113841;28;20086;-73
2021/04/26 06:01:00;;;;;;;7.43;2.13;;;9.30;72.40;;;;;;5114001;28;20428;-74
2021/04/26 06:03:26;;;;;;;6.13;2.37;;;9.10;72.30;;;;;;5113810;28;20195;-74
2021/04/26 06:05:52;;;;;;;6.13;2.17;;;8.70;72.70;;;;;;5113834;28;20423;-73
2021/04/26 06:08:18;;;;;;;3.53;1.77;;;8.40;73.40;;;;;;5114051;28;20039;-73
2021/04/26 06:10:44;;;;;;;5.93;1.83;;;8.10;73.90;;;;;;5113233;28;20047;-74
2021/04/26 06:13:10;;;;;;;4.70;1.87;;;7.80;74.50;;;;;;5114064;28;20321;-73
2021/04/26 06:15:36;;;;;;;5.80;2.63;;;7.80;75.10;;;;;;5114242;28;20757;-74
2021/04/26 06:18:08;;;;;;;8.27;2.10;;;7.70;75.30;;;;;;5112993;28;20065;-74
2021/04/26 06:20:34;;;;;;;5.57;1.80;;;7.70;75.60;;;;;;5114292;28;20136;-73
2021/04/26 06:23:00;;;;;;;4.77;1.93;;;7.70;75.50;;;;;;5113478;28;20725;-74
2021/04/26 06:25:29;;;;;;;5.23;2.00;;;7.70;75.10;;;;;;5113232;28;20051;-74
2021/04/26 06:27:55;;;;;;;7.50;1.83;;;7.60;75.20;;;;;;5113334;28;20300;-73
2021/04/26 06:30:20;;;;;;;3.77;1.80;;;7.50;75.60;;;;;;5114025;28;20372;-73
2021/04/26 06:32:46;;;;;;;8.00;2.23;;;7.30;75.70;;;;;;5112637;28;20462;-73
2021/04/26 06:35:12;;;;;;;7.07;2.40;;;7.30;76.20;;;;;;5113495;28;20305;-73
2021/04/26 06:37:38;;;;;;;4.87;1.73;;;7.40;76.30;;;;;;5113398;28;20101;-73
2021/04/26 06:40:04;;;;;;;3.47;1.90;;;7.40;76.20;;;;;;5112486;28;20055;-73
2021/04/26 06:42:30;;;;;;;9.30;2.10;;;7.50;76.20;;;;;;5112892;28;20044;-73
2021/04/26 06:44:55;;;;;;;6.47;2.20;;;7.80;76.00;;;;;;5113242;28;20336;-73
2021/04/26 06:47:21;;;;;;;8.37;2.63;;;7.90;75.00;;;;;;5113063;28;20040;-74
2021/04/26 06:49:47;;;;;;;9.33;2.33;;;7.90;74.80;;;;;;5113518;28;20475;-74
2021/04/26 06:52:13;;;;;;;8.27;2.07;;;7.80;75.20;;;;;;5113153;28;20519;-75
2021/04/26 06:54:39;;;;;;;3.43;1.73;;;8.00;75.80;;;;;;5112588;28;20184;-74
2021/04/26 06:57:05;;;;;;;5.20;2.10;;;8.10;75.00;;;;;;5112673;28;20082;-75
2021/04/26 06:59:30;;;;;;;5.53;1.73;;;8.30;74.30;;;;;;5112874;28;20839;-74
2021/04/26 07:01:58;;;;;;;5.00;1.60;;;8.50;73.60;;;;;;5112410;28;20297;-75
2021/04/26 07:04:24;;;;;;;11.07;1.80;;;8.70;72.70;;;;;;5113336;28;20075;-74
2021/04/26 07:06:50;;;;;;;8.13;1.77;;;8.70;71.40;;;;;;5111945;28;20360;-74
2021/04/26 07:09:15;;;;;;;7.13;2.03;;;8.70;71.70;;;;;;5113048;28;20059;-74
2021/04/26 07:11:41;;;;;;;6.17;2.17;;;8.80;71.90;;;;;;5112882;28;20044;-74
2021/04/26 07:14:07;;;;;;;5.83;1.80;;;9.00;71.50;;;;;;5112187;28;20484;-73
2021/04/26 07:16:33;;;;;;;4.23;1.90;;;9.00;71.40;;;;;;5113042;28;20116;-75
2021/04/26 07:18:59;;;;;;;6.30;1.97;;;9.10;71.60;;;;;;5112310;28;20477;-75
2021/04/26 07:21:24;;;;;;;7.80;1.60;;;9.20;70.60;;;;;;5112457;28;20044;-74
2021/04/26 07:23:50;;;;;;;6.70;2.33;;;9.30;70.80;;;;;;5112612;28;20045;-75
2021/04/26 07:26:16;;;;;;;8.40;1.83;;;9.40;70.50;;;;;;5112454;28;20071;-74
2021/04/26 07:28:41;;;;;;;6.37;1.87;;;9.40;69.10;;;;;;5111994;28;20071;-75
2021/04/26 07:31:07;;;;;;;7.07;1.93;;;9.30;69.30;;;;;;5112507;28;20059;-75
2021/04/26 07:33:33;;;;;;;6.43;2.40;;;9.20;68.90;;;;;;5112468;28;20051;-74
2021/04/26 07:35:59;;;;;;;5.80;1.70;;;9.20;68.90;;;;;;5111071;28;20301;-74
2021/04/26 07:38:25;;;;;;;7.07;1.97;;;9.30;68.70;;;;;;5112366;28;20462;-74
2021/04/26 07:40:51;;;;;;;3.87;1.60;;;9.40;67.90;;;;;;5112196;28;20130;-73
2021/04/26 07:43:17;;;;;;;3.50;1.50;;;9.40;67.10;;;;;;5111093;28;20086;-73
2021/04/26 07:45:42;;;;;;;6.47;1.43;;;9.40;66.10;;;;;;5111967;28;20349;-74
2021/04/26 07:48:08;;;;;;;3.43;1.53;;;9.40;65.60;;;;;;5112327;28;20044;-73
2021/04/26 07:50:34;;;;;;;9.57;1.93;;;9.40;65.50;;;;;;5111709;28;20548;-74
2021/04/26 07:53:00;;;;;;;9.07;2.20;;;9.60;65.00;;;;;;5111617;28;20429;-74
2021/04/26 07:55:26;;;;;;;4.53;1.70;;;9.90;64.60;;;;;;5112233;28;20092;-74
2021/04/26 07:57:51;;;;;;;5.57;1.40;;;10.00;63.30;;;;;;5111117;28;20135;-74
2021/04/26 08:00:17;;;;;;;5.63;1.70;;;10.00;62.70;;;;;;5112008;28;20047;-74
2021/04/26 08:02:44;;;;;;;5.07;1.97;;;10.20;64.10;;;;;;5111884;28;20160;-74
2021/04/26 08:05:11;;;;;;;4.33;1.43;;;10.40;62.00;;;;;;5110902;28;20300;-74
2021/04/26 08:07:36;;;;;;;6.83;1.70;;;10.60;61.20;;;;;;5112379;28;20696;-75
2021/04/26 08:10:03;;;;;;;5.17;1.70;;;10.80;60.90;;;;;;5110805;28;20198;-75
2021/04/26 08:12:29;;;;;;;5.60;1.60;;;11.10;61.20;;;;;;5111928;28;20358;-75
2021/04/26 08:14:55;;;;;;;4.87;1.67;;;11.50;59.90;;;;;;5111594;28;20044;-78
2021/04/26 08:17:20;;;;;;;5.83;1.37;;;11.80;59.50;;;;;;5111639;28;20043;-75
2021/04/26 08:19:46;;;;;;;6.90;1.70;;;12.00;58.50;;;;;;5111750;28;20058;-76
2021/04/26 08:22:12;;;;;;;4.17;1.30;;;12.20;58.30;;;;;;5111457;28;20051;-76
2021/04/26 08:24:38;;;;;;;5.03;1.60;;;12.30;57.60;;;;;;5111411;28;20142;-77
2021/04/26 08:27:04;;;;;;;4.17;1.37;;;12.30;56.80;;;;;;5111471;28;20055;-76
2021/04/26 08:29:30;;;;;;;4.20;1.30;;;12.20;56.10;;;;;;5111917;28;20111;-77
2021/04/26 08:31:56;;;;;;;3.80;1.07;;;12.10;54.00;;;;;;5110361;28;20048;-75
2021/04/26 08:34:22;;;;;;;4.47;1.00;;;12.30;53.20;;;;;;5111561;28;20092;-76
2021/04/26 08:36:48;;;;;;;4.13;1.40;;;12.40;52.20;;;;;;5111237;28;20040;-77
2021/04/26 08:39:15;;;;;;;3.90;1.20;;;12.60;50.70;;;;;;5110789;28;20120;-74
2021/04/26 08:41:41;;;;;;;3.80;1.00;;;12.80;50.50;;;;;;5111147;28;20403;-75
2021/04/26 08:44:07;;;;;;;5.63;1.17;;;13.00;50.00;;;;;;5108343;28;20122;-75
2021/04/26 08:46:33;;;;;;;5.73;1.23;;;13.10;48.60;;;;;;5110893;28;20048;-75
2021/04/26 08:48:59;;;;;;;3.83;1.30;;;13.00;48.20;;;;;;5110207;28;20450;-76
2021/04/26 08:51:24;;;;;;;2.50;1.10;;;13.10;48.40;;;;;;5111209;28;20055;-75
2021/04/26 08:53:50;;;;;;;2.33;0.93;;;13.20;47.90;;;;;;5110576;28;20044;-75
2021/04/26 08:56:16;;;;;;;2.30;0.83;;;13.30;45.70;;;;;;5110866;28;20074;-75
2021/04/26 08:58:42;;;;;;;2.03;0.70;;;13.20;42.30;;;;;;5111503;28;20318;-76
2021/04/26 09:01:08;;;;;;;2.77;1.00;;;13.10;39.80;;;;;;5110763;28;20052;-77
2021/04/26 09:03:38;;;;;;;3.50;1.20;;;13.20;41.00;;;;;;5111581;28;20496;-77
2021/04/26 09:06:08;;;;;;;3.70;1.00;;;13.40;42.30;;;;;;5112959;28;20064;-77
2021/04/26 09:08:33;;;;;;;2.00;0.83;;;13.40;41.00;;;;;;5114841;28;20051;-77
2021/04/26 09:11:04;;;;;;;3.70;1.00;;;13.10;41.20;;;;;;5115067;28;20075;-77
2021/04/26 09:13:36;;;;;;;2.88;0.95;;;13.10;41.60;;;;;;5113459;28;20043;-77
2021/04/26 09:16:07;;;;;;;2.07;0.70;;;13.00;41.10;;;;;;5114348;28;20044;-77
2021/04/26 09:18:55;;;;;;;2.30;0.90;;;13.00;40.90;;;;;;5115738;28;20039;-77
2021/04/26 09:21:35;;;;;;;3.07;0.80;;;13.20;40.50;;;;;;5114733;28;20047;-78
2021/04/26 09:24:13;;;;;;;3.80;1.20;;;13.20;40.90;;;;;;5114797;28;20058;-78
2021/04/26 09:26:39;;;;;;;4.97;1.20;;;13.30;38.40;;;;;;5114831;28;20051;-77
2021/04/26 09:29:20;;;;;;;2.50;0.97;;;13.10;39.20;;;;;;5113829;28;20044;-77
2021/04/26 09:31:59;;;;;;;3.20;1.02;;;13.10;39.10;;;;;;5114914;28;20051;-77
2021/04/26 09:34:31;;;;;;;3.77;1.47;;;13.10;38.60;;;;;;5113950;28;20451;-76
2021/04/26 09:37:11;;;;;;;4.18;1.15;;;13.00;39.30;;;;;;5114653;28;20156;-76
2021/04/26 09:39:56;;;;;;;1.73;0.90;;;13.00;38.30;;;;;;5115116;28;20071;-76
2021/04/26 09:42:56;;;;;;;2.30;1.43;;;12.70;38.20;;;;;;5113886;28;20093;-77
2021/04/26 09:45:40;;;;;;;4.47;1.43;;;12.50;37.80;;;;;;5114594;28;20055;-77
2021/04/26 09:48:15;;;;;;;2.93;1.23;;;12.60;38.10;;;;;;5114675;28;20186;-77
2021/04/26 09:50:59;;;;;;;2.77;1.20;;;12.70;37.80;;;;;;5113435;28;20480;-75
2021/04/26 09:53:30;;;;;;;1.40;1.00;;;12.60;37.40;;;;;;5114697;27;20051;-76
2021/04/26 09:55:57;;;;;;;4.22;1.17;;;12.60;38.40;;;;;;5112651;28;20064;-75
2021/04/26 09:58:26;;;;;;;2.83;1.03;;;12.70;37.90;;;;;;5113004;28;20048;-74
2021/04/26 10:00:52;;;;;;;2.50;0.87;;;12.60;37.90;;;;;;5113445;28;20051;-75
2021/04/26 10:03:20;;;;;;;4.00;1.30;;;12.50;37.70;;;;;;5113612;28;20047;-75
2021/04/26 10:05:47;;;;;;;3.33;0.90;;;12.40;38.10;;;;;;5113978;27;20043;-74
2021/04/26 10:08:14;;;;;;;3.87;1.13;;;12.40;38.50;;;;;;5113709;28;20043;-74
2021/04/26 10:10:42;;;;;;;2.67;1.00;;;12.20;38.70;;;;;;5113649;28;20130;-74
2021/04/26 10:13:08;;;;;;;4.90;1.40;;;12.00;37.80;;;;;;5113837;28;20470;-75
2021/04/26 10:15:35;;;;;;;3.10;1.40;;;11.80;38.40;;;;;;5114236;28;20097;-75
2021/04/26 10:18:03;;;;;;;5.40;1.33;;;11.70;38.90;;;;;;5111384;28;20566;-75
2021/04/26 10:20:37;;;;;;;2.83;1.17;;;11.70;39.50;;;;;;5114045;28;20502;-75
2021/04/26 10:23:04;;;;;;;2.33;1.30;;;11.60;39.10;;;;;;5113335;28;20150;-74
2021/04/26 10:25:41;;;;;;;2.33;1.20;;;11.60;39.30;;;;;;5113370;28;20143;-74
2021/04/26 10:28:32;;;;;;;4.07;1.30;;;11.50;39.60;;;;;;5113582;28;20051;-74
2021/04/26 10:31:02;;;;;;;4.73;1.50;;;11.40;37.20;;;;;;5112515;28;20052;-75
2021/04/26 10:33:54;;;;;;;3.40;1.27;;;11.30;39.40;;;;;;5114106;28;20055;-74
2021/04/26 10:36:42;;;;;;;3.30;1.23;;;11.30;40.00;;;;;;5113394;28;20533;-74
2021/04/26 10:39:15;;;;;;;1.97;1.10;;;11.30;40.10;;;;;;5112890;28;20048;-74
2021/04/26 10:42:09;;;;;;;6.17;1.60;;;11.40;39.70;;;;;;5113171;28;20176;-76
2021/04/26 10:44:40;;;;;;;3.80;1.23;;;11.40;40.10;;;;;;5113673;28;20454;-75
2021/04/26 10:47:28;;;;;;;4.75;1.70;;;11.30;39.70;;;;;;5112666;28;20396;-74
2021/04/26 10:50:00;;;;;;;3.47;1.40;;;11.40;40.40;;;;;;5111621;28;20139;-74
2021/04/26 10:52:35;;;;;;;4.90;1.52;;;11.50;40.40;;;;;;5112753;28;20301;-75
2021/04/26 10:55:10;;;;;;;6.93;1.70;;;11.60;40.50;;;;;;5112959;28;20055;-75
2021/04/26 10:57:51;;;;;;;6.27;2.27;;;11.80;40.70;;;;;;5113507;28;20122;-75
2021/04/26 11:00:29;;;;;;;3.72;1.58;;;11.90;40.40;;;;;;5112318;27;20067;-74
2021/04/26 11:03:07;;;;;;;3.30;1.37;;;11.90;40.50;;;;;;5112874;28;20127;-75
2021/04/26 11:05:35;;;;;;;7.17;1.73;;;11.80;40.70;;;;;;5113452;28;20052;-75
2021/04/26 11:08:09;;;;;;;5.20;1.40;;;11.80;40.70;;;;;;5112041;28;20047;-74
2021/04/26 11:10:39;;;;;;;3.57;1.43;;;11.90;41.00;;;;;;5113045;28;20293;-75
2021/04/26 11:13:32;;;;;;;4.87;1.83;;;12.10;41.10;;;;;;5111832;28;20073;-75
2021/04/26 11:16:08;;;;;;;3.03;1.30;;;12.00;40.50;;;;;;5112649;28;20040;-75
2021/04/26 11:18:39;;;;;;;6.17;1.80;;;12.00;40.70;;;;;;5112985;28;20051;-74
2021/04/26 11:21:05;;;;;;;2.42;1.35;;;12.10;40.70;;;;;;5111332;28;20487;-74
2021/04/26 11:23:43;;;;;;;8.67;1.90;;;12.10;40.30;;;;;;5113044;28;20043;-74
2021/04/26 11:26:17;;;;;;;4.30;2.07;;;12.10;40.70;;;;;;5112076;28;20051;-74
2021/04/26 11:29:01;;;;;;;5.33;1.80;;;12.20;40.80;;;;;;5111544;28;20051;-73
2021/04/26 11:31:41;;;;;;;3.83;1.37;;;12.20;41.40;;;;;;5112528;28;20109;-74
2021/04/26 11:34:18;;;;;;;4.53;1.60;;;12.30;40.80;;;;;;5111501;28;20039;-74
2021/04/26 11:37:03;;;;;;;3.47;1.30;;;12.40;40.90;;;;;;5109526;28;20060;-74
2021/04/26 11:39:30;;;;;;;4.47;1.70;;;12.50;39.70;;;;;;5112354;28;20051;-73
2021/04/26 11:41:56;;;;;;;2.57;1.40;;;12.50;40.30;;;;;;5111026;28;20146;-74
2021/04/26 11:44:26;;;;;;;4.57;1.73;;;12.50;40.70;;;;;;5112492;28;20497;-74
2021/04/26 11:46:53;;;;;;;8.23;1.87;;;12.50;41.80;;;;;;5112198;28;20146;-74
2021/04/26 11:49:23;;;;;;;5.37;1.90;;;12.50;41.30;;;;;;5111097;28;20064;-75
2021/04/26 11:51:53;;;;;;;7.57;1.80;;;12.50;41.30;;;;;;5111630;28;20052;-75
2021/04/26 11:54:22;;;;;;;5.60;1.80;;;12.50;41.90;;;;;;5111924;28;20048;-76
2021/04/26 11:57:07;;;;;;;7.90;2.13;;;12.50;42.10;;;;;;5110883;28;20044;-74
2021/04/26 11:59:34;;;;;;;9.10;2.27;;;12.40;42.00;;;;;;5112198;28;20104;-74
2021/04/26 12:02:00;;;;;;;5.27;1.80;;;12.40;42.50;;;;;;5109243;28;20047;-74
2021/04/26 12:04:42;;;;;;;6.53;2.60;;;12.30;42.80;;;;;;5109540;28;20405;-74
2021/04/26 12:07:10;;;;;;;6.07;2.00;;;12.20;42.70;;;;;;5110889;28;20571;-73
2021/04/26 12:09:39;;;;;;;8.10;2.60;;;12.20;43.40;;;;;;5110581;28;20506;-74
2021/04/26 12:12:07;;;;;;;6.37;2.13;;;12.20;43.00;;;;;;5111156;28;20059;-74
2021/04/26 12:14:34;;;;;;;5.23;2.60;;;12.20;42.80;;;;;;5111501;28;20048;-73
2021/04/26 12:17:16;;;;;;;3.97;1.87;;;12.30;43.10;;;;;;5108091;28;20116;-74
2021/04/26 12:19:42;;;;;;;5.37;1.87;;;12.50;43.20;;;;;;5109525;28;20047;-73
2021/04/26 12:22:08;;;;;;;4.67;2.00;;;12.40;42.30;;;;;;5109511;28;20051;-74
2021/04/26 12:24:34;;;;;;;3.40;2.10;;;12.30;42.60;;;;;;5109126;28;20525;-75
2021/04/26 12:27:14;;;;;;;6.83;2.27;;;12.30;42.70;;;;;;5109270;28;20135;-74
2021/04/26 12:29:40;;;;;;;7.63;2.47;;;12.30;43.00;;;;;;5109530;28;20113;-74
2021/04/26 12:32:10;;;;;;;5.43;1.80;;;12.40;42.70;;;;;;5110250;28;20439;-74
2021/04/26 12:34:48;;;;;;;6.53;2.03;;;12.40;42.60;;;;;;5111267;28;20357;-74
2021/04/26 12:37:15;;;;;;;4.00;1.90;;;12.40;42.80;;;;;;5110665;28;20496;-74
2021/04/26 12:39:41;;;;;;;5.10;2.03;;;12.40;43.20;;;;;;5110575;28;20100;-76
2021/04/26 12:42:14;;;;;;;7.30;2.40;;;12.30;43.20;;;;;;5110768;28;20476;-75
2021/04/26 12:44:41;;;;;;;5.50;2.40;;;12.40;43.90;;;;;;5111016;28;20059;-75
2021/04/26 12:47:24;;;;;;;7.13;2.67;;;12.50;43.90;;;;;;5110692;28;20493;-74
2021/04/26 12:50:24;;;;;;;7.47;1.77;;;12.50;43.80;;;;;;5111327;28;20408;-74
2021/04/26 12:53:09;;;;;;;5.97;1.93;;;12.40;44.60;;;;;;5076825;28;20047;-74
2021/04/26 12:55:44;;;;;;;7.03;1.67;;;12.20;44.90;;;;;;5111151;28;20560;-75
2021/04/26 12:58:28;;;;;;;17.47;3.20;;;12.10;45.60;;;;;;5111175;28;20043;-75
2021/04/26 13:00:56;;;;;;;4.10;1.37;;;12.10;46.10;;;;;;5110990;28;20105;-76
2021/04/26 13:03:31;;;;;;;5.30;1.80;;;12.10;46.40;;;;;;5111102;28;20046;-75